sensor_id;sensor_type;location;lat;lon;timestamp;pressure;altitude;pressure_sealevel;temperature;humidity
65659;BME280;60181;53.258;6.932;2023-04-07T00:03:51;101612.39;;;13.40;55.15
65659;BME280;60181;53.258;6.932;2023-04-07T00:07:55;101611.90;;;13.40;55.11
65659;BME280;60181;53.258;6.932;2023-04-07T00:11:59;101611.30;;;13.39;55.11
65659;BME280;60181;53.258;6.932;2023-04-07T00:16:03;101611.61;;;13.39;55.14
65659;BME280;60181;53.258;6.932;2023-04-07T00:20:07;101611.05;;;13.39;55.13
65659;BME280;60181;53.258;6.932;2023-04-07T00:24:11;101611.70;;;13.39;55.18
65659;BME280;60181;53.258;6.932;2023-04-07T00:28:15;101612.52;;;13.39;55.07
65659;BME280;60181;53.258;6.932;2023-04-07T00:32:19;101613.56;;;13.38;55.11
65659;BME280;60181;53.258;6.932;2023-04-07T00:36:23;101614.79;;;13.38;55.09
65659;BME280;60181;53.258;6.932;2023-04-07T00:40:27;101614.72;;;13.38;55.13
65659;BME280;60181;53.258;6.932;2023-04-07T00:44:31;101613.23;;;13.37;55.16
65659;BME280;60181;53.258;6.932;2023-04-07T00:48:35;101611.22;;;13.37;55.19
65659;BME280;60181;53.258;6.932;2023-04-07T00:52:39;101609.74;;;13.36;55.18
65659;BME280;60181;53.258;6.932;2023-04-07T00:56:43;101607.93;;;13.36;55.11
65659;BME280;60181;53.258;6.932;2023-04-07T01:04:54;101606.83;;;13.36;55.15
65659;BME280;60181;53.258;6.932;2023-04-07T01:09:10;101605.44;;;13.36;55.11
65659;BME280;60181;53.258;6.932;2023-04-07T01:13:03;101605.19;;;13.35;55.15
65659;BME280;60181;53.258;6.932;2023-04-07T01:17:03;101604.58;;;13.35;55.17
65659;BME280;60181;53.258;6.932;2023-04-07T01:21:08;101603.34;;;13.34;55.19
65659;BME280;60181;53.258;6.932;2023-04-07T01:29:32;101602.03;;;13.34;55.22
65659;BME280;60181;53.258;6.932;2023-04-07T01:33:19;101601.75;;;13.34;55.25
65659;BME280;60181;53.258;6.932;2023-04-07T01:37:23;101602.15;;;13.33;55.31
65659;BME280;60181;53.258;6.932;2023-04-07T01:41:27;101602.70;;;13.33;55.24
65659;BME280;60181;53.258;6.932;2023-04-07T01:45:31;101602.45;;;13.32;55.23
65659;BME280;60181;53.258;6.932;2023-04-07T01:49:35;101602.95;;;13.32;55.29
65659;BME280;60181;53.258;6.932;2023-04-07T01:53:39;101602.91;;;13.31;55.27
65659;BME280;60181;53.258;6.932;2023-04-07T01:57:43;101604.47;;;13.31;55.28
65659;BME280;60181;53.258;6.932;2023-04-07T02:01:47;101606.20;;;13.31;55.30
65659;BME280;60181;53.258;6.932;2023-04-07T02:05:51;101607.15;;;13.30;55.37
65659;BME280;60181;53.258;6.932;2023-04-07T02:09:55;101608.56;;;13.30;55.31
65659;BME280;60181;53.258;6.932;2023-04-07T02:13:59;101609.55;;;13.29;55.37
65659;BME280;60181;53.258;6.932;2023-04-07T02:18:03;101611.16;;;13.29;55.29
65659;BME280;60181;53.258;6.932;2023-04-07T02:22:06;101612.14;;;13.29;55.33
65659;BME280;60181;53.258;6.932;2023-04-07T02:26:10;101613.22;;;13.29;55.25
65659;BME280;60181;53.258;6.932;2023-04-07T02:30:15;101614.45;;;13.28;55.30
65659;BME280;60181;53.258;6.932;2023-04-07T02:34:18;101615.85;;;13.29;55.34
65659;BME280;60181;53.258;6.932;2023-04-07T02:38:22;101616.42;;;13.28;55.33
65659;BME280;60181;53.258;6.932;2023-04-07T02:42:26;101617.63;;;13.28;55.37
65659;BME280;60181;53.258;6.932;2023-04-07T02:46:30;101618.75;;;13.27;55.41
65659;BME280;60181;53.258;6.932;2023-04-07T02:50:34;101619.73;;;13.27;55.34
65659;BME280;60181;53.258;6.932;2023-04-07T02:54:38;101620.64;;;13.27;55.36
65659;BME280;60181;53.258;6.932;2023-04-07T02:58:42;101622.20;;;13.27;55.30
65659;BME280;60181;53.258;6.932;2023-04-07T03:02:46;101622.94;;;13.26;55.36
65659;BME280;60181;53.258;6.932;2023-04-07T03:06:50;101623.68;;;13.26;55.37
65659;BME280;60181;53.258;6.932;2023-04-07T03:10:54;101624.88;;;13.25;55.42
65659;BME280;60181;53.258;6.932;2023-04-07T03:14:58;101626.78;;;13.25;55.44
65659;BME280;60181;53.258;6.932;2023-04-07T03:19:02;101627.31;;;13.25;55.43
65659;BME280;60181;53.258;6.932;2023-04-07T03:23:07;101630.11;;;13.25;55.38
65659;BME280;60181;53.258;6.932;2023-04-07T03:27:10;101631.59;;;13.24;55.37
65659;BME280;60181;53.258;6.932;2023-04-07T03:31:14;101632.87;;;13.24;55.46
65659;BME280;60181;53.258;6.932;2023-04-07T03:35:18;101633.78;;;13.23;55.48
65659;BME280;60181;53.258;6.932;2023-04-07T03:39:22;101635.10;;;13.23;55.49
65659;BME280;60181;53.258;6.932;2023-04-07T03:43:26;101635.31;;;13.22;55.49
65659;BME280;60181;53.258;6.932;2023-04-07T03:47:30;101635.72;;;13.22;55.41
65659;BME280;60181;53.258;6.932;2023-04-07T03:51:34;101636.02;;;13.21;55.51
65659;BME280;60181;53.258;6.932;2023-04-07T03:55:38;101636.92;;;13.21;55.46
65659;BME280;60181;53.258;6.932;2023-04-07T03:59:42;101639.23;;;13.21;55.51
65659;BME280;60181;53.258;6.932;2023-04-07T04:03:47;101641.17;;;13.20;55.53
65659;BME280;60181;53.258;6.932;2023-04-07T04:07:50;101643.14;;;13.20;55.49
65659;BME280;60181;53.258;6.932;2023-04-07T04:11:54;101646.11;;;13.20;55.51
65659;BME280;60181;53.258;6.932;2023-04-07T04:15:58;101649.39;;;13.20;55.47
65659;BME280;60181;53.258;6.932;2023-04-07T04:20:03;101652.03;;;13.20;55.51
65659;BME280;60181;53.258;6.932;2023-04-07T04:24:06;101654.41;;;13.19;55.53
65659;BME280;60181;53.258;6.932;2023-04-07T04:28:10;101656.52;;;13.19;55.53
65659;BME280;60181;53.258;6.932;2023-04-07T04:32:14;101658.91;;;13.19;55.59
65659;BME280;60181;53.258;6.932;2023-04-07T04:36:18;101660.63;;;13.18;55.57
65659;BME280;60181;53.258;6.932;2023-04-07T04:40:22;101662.81;;;13.18;55.53
65659;BME280;60181;53.258;6.932;2023-04-07T04:44:26;101665.86;;;13.17;55.54
65659;BME280;60181;53.258;6.932;2023-04-07T04:48:30;101669.53;;;13.17;55.56
65659;BME280;60181;53.258;6.932;2023-04-07T04:52:34;101673.07;;;13.17;55.53
65659;BME280;60181;53.258;6.932;2023-04-07T04:56:38;101676.76;;;13.17;55.56
65659;BME280;60181;53.258;6.932;2023-04-07T05:00:42;101679.72;;;13.16;55.57
65659;BME280;60181;53.258;6.932;2023-04-07T05:04:46;101682.00;;;13.16;55.53
65659;BME280;60181;53.258;6.932;2023-04-07T05:08:50;101684.63;;;13.16;55.55
65659;BME280;60181;53.258;6.932;2023-04-07T05:12:54;101687.59;;;13.16;55.56
65659;BME280;60181;53.258;6.932;2023-04-07T05:16:58;101691.54;;;13.16;55.58
65659;BME280;60181;53.258;6.932;2023-04-07T05:21:03;101694.58;;;13.15;55.52
65659;BME280;60181;53.258;6.932;2023-04-07T05:25:07;101697.80;;;13.15;55.59
65659;BME280;60181;53.258;6.932;2023-04-07T05:29:10;101700.81;;;13.15;55.58
65659;BME280;60181;53.258;6.932;2023-04-07T05:33:14;101703.60;;;13.15;55.58
65659;BME280;60181;53.258;6.932;2023-04-07T05:37:18;101705.58;;;13.15;55.62
65659;BME280;60181;53.258;6.932;2023-04-07T05:41:22;101707.72;;;13.15;55.55
65659;BME280;60181;53.258;6.932;2023-04-07T05:45:26;101711.61;;;13.15;55.53
65659;BME280;60181;53.258;6.932;2023-04-07T05:49:30;101714.65;;;13.15;55.46
65659;BME280;60181;53.258;6.932;2023-04-07T05:53:34;101718.06;;;13.16;55.48
65659;BME280;60181;53.258;6.932;2023-04-07T05:57:38;101720.86;;;13.17;55.46
65659;BME280;60181;53.258;6.932;2023-04-07T06:01:42;101723.77;;;13.17;55.36
65659;BME280;60181;53.258;6.932;2023-04-07T06:05:46;101726.40;;;13.18;55.35
65659;BME280;60181;53.258;6.932;2023-04-07T06:09:50;101730.80;;;13.19;55.34
65659;BME280;60181;53.258;6.932;2023-04-07T06:13:54;101734.27;;;13.19;55.36
65659;BME280;60181;53.258;6.932;2023-04-07T06:17:58;101738.65;;;13.20;55.37
65659;BME280;60181;53.258;6.932;2023-04-07T06:22:02;101742.03;;;13.20;55.39
65659;BME280;60181;53.258;6.932;2023-04-07T06:26:09;101745.32;;;13.20;55.41
65659;BME280;60181;53.258;6.932;2023-04-07T06:30:10;101748.86;;;13.20;55.42
65659;BME280;60181;53.258;6.932;2023-04-07T06:34:14;101751.44;;;13.21;55.39
65659;BME280;60181;53.258;6.932;2023-04-07T06:38:18;101753.75;;;13.21;55.39
65659;BME280;60181;53.258;6.932;2023-04-07T06:42:22;101758.59;;;13.21;55.37
65659;BME280;60181;53.258;6.932;2023-04-07T06:46:26;101762.63;;;13.21;55.38
65659;BME280;60181;53.258;6.932;2023-04-07T06:50:30;101766.50;;;13.21;55.40
65659;BME280;60181;53.258;6.932;2023-04-07T06:54:34;101770.89;;;13.22;55.40
65659;BME280;60181;53.258;6.932;2023-04-07T06:58:38;101774.19;;;13.22;55.42
65659;BME280;60181;53.258;6.932;2023-04-07T07:02:42;101778.05;;;13.22;55.41
65659;BME280;60181;53.258;6.932;2023-04-07T07:06:46;101781.59;;;13.22;55.37
65659;BME280;60181;53.258;6.932;2023-04-07T07:10:50;101785.78;;;13.22;55.36
65659;BME280;60181;53.258;6.932;2023-04-07T07:14:54;101789.76;;;13.23;55.36
65659;BME280;60181;53.258;6.932;2023-04-07T07:18:58;101793.39;;;13.24;55.38
65659;BME280;60181;53.258;6.932;2023-04-07T07:23:02;101796.88;;;13.24;55.29
65659;BME280;60181;53.258;6.932;2023-04-07T07:27:06;101800.05;;;13.25;55.26
65659;BME280;60181;53.258;6.932;2023-04-07T07:31:10;101803.54;;;13.26;55.23
65659;BME280;60181;53.258;6.932;2023-04-07T07:35:14;101807.98;;;13.27;55.24
65659;BME280;60181;53.258;6.932;2023-04-07T07:39:18;101812.13;;;13.28;55.27
65659;BME280;60181;53.258;6.932;2023-04-07T07:43:22;101816.40;;;13.29;55.20
65659;BME280;60181;53.258;6.932;2023-04-07T07:47:26;101821.45;;;13.31;55.05
65659;BME280;60181;53.258;6.932;2023-04-07T07:51:30;101825.73;;;13.33;54.93
65659;BME280;60181;53.258;6.932;2023-04-07T07:55:34;101831.15;;;13.35;54.88
65659;BME280;60181;53.258;6.932;2023-04-07T07:59:38;101835.35;;;13.38;54.82
65659;BME280;60181;53.258;6.932;2023-04-07T08:03:42;101838.65;;;13.40;54.85
65659;BME280;60181;53.258;6.932;2023-04-07T08:07:46;101841.69;;;13.42;54.86
65659;BME280;60181;53.258;6.932;2023-04-07T08:11:50;101845.95;;;13.44;54.76
65659;BME280;60181;53.258;6.932;2023-04-07T08:15:54;101850.51;;;13.46;54.78
65659;BME280;60181;53.258;6.932;2023-04-07T08:19:59;101853.89;;;13.48;54.86
65659;BME280;60181;53.258;6.932;2023-04-07T08:24:02;101856.84;;;13.50;54.68
65659;BME280;60181;53.258;6.932;2023-04-07T08:28:06;101859.30;;;13.53;54.76
65659;BME280;60181;53.258;6.932;2023-04-07T08:32:10;101861.80;;;13.56;54.58
65659;BME280;60181;53.258;6.932;2023-04-07T08:36:14;101864.82;;;13.60;54.52
65659;BME280;60181;53.258;6.932;2023-04-07T08:40:18;101867.85;;;13.64;54.53
65659;BME280;60181;53.258;6.932;2023-04-07T08:44:22;101871.12;;;13.69;54.48
65659;BME280;60181;53.258;6.932;2023-04-07T08:48:26;101875.12;;;13.73;54.50
65659;BME280;60181;53.258;6.932;2023-04-07T08:52:34;101878.78;;;13.77;54.42
65659;BME280;60181;53.258;6.932;2023-04-07T08:56:34;101881.39;;;13.81;54.40
65659;BME280;60181;53.258;6.932;2023-04-07T09:00:42;101884.88;;;13.85;54.22
65659;BME280;60181;53.258;6.932;2023-04-07T09:04:42;101886.91;;;13.89;54.23
65659;BME280;60181;53.258;6.932;2023-04-07T09:08:46;101888.65;;;13.92;54.18
65659;BME280;60181;53.258;6.932;2023-04-07T09:12:50;101891.15;;;13.96;54.15
65659;BME280;60181;53.258;6.932;2023-04-07T09:16:54;101893.36;;;13.98;54.20
65659;BME280;60181;53.258;6.932;2023-04-07T09:20:59;101896.23;;;14.00;54.13
65659;BME280;60181;53.258;6.932;2023-04-07T09:29:06;101901.62;;;14.01;54.23
65659;BME280;60181;53.258;6.932;2023-04-07T09:33:10;101902.73;;;14.02;54.28
65659;BME280;60181;53.258;6.932;2023-04-07T09:37:21;101903.63;;;14.02;54.27
65659;BME280;60181;53.258;6.932;2023-04-07T09:41:18;101905.44;;;14.02;54.37
65659;BME280;60181;53.258;6.932;2023-04-07T09:45:23;101907.06;;;14.02;54.39
65659;BME280;60181;53.258;6.932;2023-04-07T09:49:26;101907.31;;;14.01;54.43
65659;BME280;60181;53.258;6.932;2023-04-07T09:53:42;101908.70;;;14.01;54.31
65659;BME280;60181;53.258;6.932;2023-04-07T09:57:34;101909.45;;;14.01;54.42
65659;BME280;60181;53.258;6.932;2023-04-07T10:01:38;101909.16;;;14.02;54.32
65659;BME280;60181;53.258;6.932;2023-04-07T10:05:42;101909.93;;;14.03;54.40
65659;BME280;60181;53.258;6.932;2023-04-07T10:09:46;101910.50;;;14.03;54.35
65659;BME280;60181;53.258;6.932;2023-04-07T10:13:50;101911.28;;;14.04;54.38
65659;BME280;60181;53.258;6.932;2023-04-07T10:17:54;101912.97;;;14.05;54.32
65659;BME280;60181;53.258;6.932;2023-04-07T10:21:58;101913.21;;;14.05;54.41
65659;BME280;60181;53.258;6.932;2023-04-07T10:26:02;101913.62;;;14.06;54.43
65659;BME280;60181;53.258;6.932;2023-04-07T10:30:07;101914.61;;;14.06;54.52
65659;BME280;60181;53.258;6.932;2023-04-07T10:34:10;101916.35;;;14.05;54.53
65659;BME280;60181;53.258;6.932;2023-04-07T10:38:14;101918.62;;;14.05;54.43
65659;BME280;60181;53.258;6.932;2023-04-07T10:46:22;101923.52;;;14.04;54.58
65659;BME280;60181;53.258;6.932;2023-04-07T10:50:26;101926.33;;;14.03;54.64
65659;BME280;60181;53.258;6.932;2023-04-07T10:54:30;101929.58;;;14.03;54.70
65659;BME280;60181;53.258;6.932;2023-04-07T10:58:34;101932.39;;;14.02;54.54
65659;BME280;60181;53.258;6.932;2023-04-07T11:02:38;101934.52;;;14.02;54.59
65659;BME280;60181;53.258;6.932;2023-04-07T11:06:47;101936.80;;;14.01;54.70
65659;BME280;60181;53.258;6.932;2023-04-07T11:10:46;101938.28;;;14.01;54.58
65659;BME280;60181;53.258;6.932;2023-04-07T11:14:50;101940.72;;;14.00;54.57
65659;BME280;60181;53.258;6.932;2023-04-07T11:18:54;101942.69;;;14.00;54.59
65659;BME280;60181;53.258;6.932;2023-04-07T11:22:58;101943.40;;;13.99;54.62
65659;BME280;60181;53.258;6.932;2023-04-07T11:27:02;101944.44;;;13.98;54.65
65659;BME280;60181;53.258;6.932;2023-04-07T11:31:06;101946.17;;;13.98;54.63
65659;BME280;60181;53.258;6.932;2023-04-07T11:35:10;101947.40;;;13.98;54.57
65659;BME280;60181;53.258;6.932;2023-04-07T11:39:20;101949.21;;;13.98;54.63
65659;BME280;60181;53.258;6.932;2023-04-07T11:43:21;101951.03;;;13.98;54.68
65659;BME280;60181;53.258;6.932;2023-04-07T11:47:26;101952.09;;;13.98;54.63
65659;BME280;60181;53.258;6.932;2023-04-07T11:51:26;101954.35;;;13.99;54.61
65659;BME280;60181;53.258;6.932;2023-04-07T11:55:30;101955.92;;;13.99;54.64
65659;BME280;60181;53.258;6.932;2023-04-07T11:59:34;101957.40;;;13.99;54.59
65659;BME280;60181;53.258;6.932;2023-04-07T12:03:53;101960.28;;;13.99;54.64
65659;BME280;60181;53.258;6.932;2023-04-07T12:07:51;101962.84;;;13.99;54.59
65659;BME280;60181;53.258;6.932;2023-04-07T12:11:49;101965.55;;;13.99;54.65
65659;BME280;60181;53.258;6.932;2023-04-07T12:15:50;101967.91;;;13.98;54.65
65659;BME280;60181;53.258;6.932;2023-04-07T12:19:54;101972.44;;;13.98;54.66
65659;BME280;60181;53.258;6.932;2023-04-07T12:23:58;101975.90;;;13.98;54.60
65659;BME280;60181;53.258;6.932;2023-04-07T12:28:02;101978.87;;;13.98;54.64
65659;BME280;60181;53.258;6.932;2023-04-07T12:32:06;101982.15;;;13.98;54.60
65659;BME280;60181;53.258;6.932;2023-04-07T12:36:10;101983.81;;;13.98;54.67
65659;BME280;60181;53.258;6.932;2023-04-07T12:40:14;101986.61;;;13.98;54.62
65659;BME280;60181;53.258;6.932;2023-04-07T12:44:18;101988.75;;;13.98;54.60
65659;BME280;60181;53.258;6.932;2023-04-07T12:48:22;101990.56;;;13.98;54.67
65659;BME280;60181;53.258;6.932;2023-04-07T12:52:26;101992.63;;;13.98;54.65
65659;BME280;60181;53.258;6.932;2023-04-07T12:56:30;101994.60;;;13.98;54.62
65659;BME280;60181;53.258;6.932;2023-04-07T13:00:34;101997.07;;;13.98;54.62
65659;BME280;60181;53.258;6.932;2023-04-07T13:04:38;101999.46;;;13.98;54.64
65659;BME280;60181;53.258;6.932;2023-04-07T13:08:42;102001.84;;;13.97;54.67
65659;BME280;60181;53.258;6.932;2023-04-07T13:12:47;102003.88;;;13.97;54.67
65659;BME280;60181;53.258;6.932;2023-04-07T13:16:50;102006.34;;;13.97;54.66
65659;BME280;60181;53.258;6.932;2023-04-07T13:20:54;102008.48;;;13.97;54.65
65659;BME280;60181;53.258;6.932;2023-04-07T13:24:58;102009.80;;;13.97;54.71
65659;BME280;60181;53.258;6.932;2023-04-07T13:29:02;102011.04;;;13.97;54.63
65659;BME280;60181;53.258;6.932;2023-04-07T13:33:06;102011.61;;;13.97;54.63
65659;BME280;60181;53.258;6.932;2023-04-07T13:37:10;102011.21;;;13.96;54.65
65659;BME280;60181;53.258;6.932;2023-04-07T13:41:13;102010.42;;;13.96;54.66
65659;BME280;60181;53.258;6.932;2023-04-07T13:45:18;102011.75;;;13.96;54.68
65659;BME280;60181;53.258;6.932;2023-04-07T13:49:22;102011.99;;;13.96;54.68
65659;BME280;60181;53.258;6.932;2023-04-07T13:53:25;102011.58;;;13.96;54.65
65659;BME280;60181;53.258;6.932;2023-04-07T13:57:30;102012.07;;;13.96;54.66
65659;BME280;60181;53.258;6.932;2023-04-07T14:01:34;102012.41;;;13.96;54.63
65659;BME280;60181;53.258;6.932;2023-04-07T14:05:37;102012.73;;;13.96;54.66
65659;BME280;60181;53.258;6.932;2023-04-07T14:09:41;102012.31;;;13.95;54.66
65659;BME280;60181;53.258;6.932;2023-04-07T14:13:45;102011.55;;;13.95;54.69
65659;BME280;60181;53.258;6.932;2023-04-07T14:17:49;102011.95;;;13.95;54.67
65659;BME280;60181;53.258;6.932;2023-04-07T14:21:54;102011.38;;;13.95;54.69
65659;BME280;60181;53.258;6.932;2023-04-07T14:25:58;102010.30;;;13.94;54.64
65659;BME280;60181;53.258;6.932;2023-04-07T14:30:02;102010.05;;;13.94;54.68
65659;BME280;60181;53.258;6.932;2023-04-07T14:34:05;102009.86;;;13.94;54.67
65659;BME280;60181;53.258;6.932;2023-04-07T14:38:09;102010.02;;;13.94;54.64
65659;BME280;60181;53.258;6.932;2023-04-07T14:42:13;102011.58;;;13.93;54.65
65659;BME280;60181;53.258;6.932;2023-04-07T14:46:17;102013.16;;;13.94;54.61
65659;BME280;60181;53.258;6.932;2023-04-07T14:50:21;102014.39;;;13.93;54.60
65659;BME280;60181;53.258;6.932;2023-04-07T14:54:25;102016.11;;;13.93;54.60
65659;BME280;60181;53.258;6.932;2023-04-07T14:58:30;102018.59;;;13.93;54.62
65659;BME280;60181;53.258;6.932;2023-04-07T15:02:34;102021.39;;;13.93;54.59
65659;BME280;60181;53.258;6.932;2023-04-07T15:06:40;102023.74;;;13.93;54.59
65659;BME280;60181;53.258;6.932;2023-04-07T15:10:41;102025.72;;;13.92;54.63
65659;BME280;60181;53.258;6.932;2023-04-07T15:14:45;102027.45;;;13.92;54.61
65659;BME280;60181;53.258;6.932;2023-04-07T15:18:49;102029.42;;;13.92;54.56
65659;BME280;60181;53.258;6.932;2023-04-07T15:22:53;102032.54;;;13.92;54.51
65659;BME280;60181;53.258;6.932;2023-04-07T15:26:57;102035.35;;;13.92;54.48
65659;BME280;60181;53.258;6.932;2023-04-07T15:31:01;102037.55;;;13.92;54.51
65659;BME280;60181;53.258;6.932;2023-04-07T15:35:06;102039.51;;;13.92;54.48
65659;BME280;60181;53.258;6.932;2023-04-07T15:39:09;102041.78;;;13.92;54.47
65659;BME280;60181;53.258;6.932;2023-04-07T15:43:13;102044.62;;;13.92;54.43
65659;BME280;60181;53.258;6.932;2023-04-07T15:47:17;102046.61;;;13.92;54.38
65659;BME280;60181;53.258;6.932;2023-04-07T15:51:21;102047.42;;;13.92;54.37
65659;BME280;60181;53.258;6.932;2023-04-07T15:55:25;102048.58;;;13.92;54.36
65659;BME280;60181;53.258;6.932;2023-04-07T15:59:29;102050.34;;;13.92;55.47
65659;BME280;60181;53.258;6.932;2023-04-07T16:03:33;102053.23;;;13.92;55.23
65659;BME280;60181;53.258;6.932;2023-04-07T16:07:37;102056.16;;;13.92;55.24
65659;BME280;60181;53.258;6.932;2023-04-07T16:11:41;102060.11;;;13.91;55.40
65659;BME280;60181;53.258;6.932;2023-04-07T16:15:45;102063.78;;;13.90;55.49
65659;BME280;60181;53.258;6.932;2023-04-07T16:19:49;102067.49;;;13.90;55.48
65659;BME280;60181;53.258;6.932;2023-04-07T16:23:53;102070.48;;;13.91;55.28
65659;BME280;60181;53.258;6.932;2023-04-07T16:27:57;102074.31;;;13.93;55.09
65659;BME280;60181;53.258;6.932;2023-04-07T16:32:01;102078.75;;;13.95;54.96
65659;BME280;60181;53.258;6.932;2023-04-07T16:36:05;102083.82;;;13.96;55.93
65659;BME280;60181;53.258;6.932;2023-04-07T16:40:09;102089.21;;;13.97;55.80
65659;BME280;60181;53.258;6.932;2023-04-07T16:44:13;102093.45;;;13.97;55.45
65659;BME280;60181;53.258;6.932;2023-04-07T16:48:17;102097.77;;;13.99;55.12
65659;BME280;60181;53.258;6.932;2023-04-07T16:52:21;102101.84;;;14.00;55.09
65659;BME280;60181;53.258;6.932;2023-04-07T16:56:25;102106.83;;;14.01;56.04
65659;BME280;60181;53.258;6.932;2023-04-07T17:00:29;102110.53;;;14.01;55.65
65659;BME280;60181;53.258;6.932;2023-04-07T17:04:33;102115.23;;;14.01;55.52
65659;BME280;60181;53.258;6.932;2023-04-07T17:08:37;102120.01;;;14.01;55.56
65659;BME280;60181;53.258;6.932;2023-04-07T17:12:41;102124.55;;;14.01;55.38
65659;BME280;60181;53.258;6.932;2023-04-07T17:33:02;102151.11;;;13.97;55.15
65659;BME280;60181;53.258;6.932;2023-04-07T17:37:05;102157.09;;;13.97;55.43
65659;BME280;60181;53.258;6.932;2023-04-07T17:41:09;102164.62;;;13.96;55.17
65659;BME280;60181;53.258;6.932;2023-04-07T17:45:13;102171.34;;;13.95;55.37
65659;BME280;60181;53.258;6.932;2023-04-07T17:49:17;102177.07;;;13.94;55.31
65659;BME280;60181;53.258;6.932;2023-04-07T17:53:21;102182.54;;;13.92;55.51
65659;BME280;60181;53.258;6.932;2023-04-07T17:57:25;102188.02;;;13.91;55.39
65659;BME280;60181;53.258;6.932;2023-04-07T18:01:29;102192.44;;;13.90;55.49
65659;BME280;60181;53.258;6.932;2023-04-07T18:09:37;102203.06;;;13.87;55.46
65659;BME280;60181;53.258;6.932;2023-04-07T18:13:41;102208.75;;;13.86;55.24
65659;BME280;60181;53.258;6.932;2023-04-07T18:17:45;102214.72;;;13.85;55.24
65659;BME280;60181;53.258;6.932;2023-04-07T18:21:49;102220.61;;;13.83;55.23
65659;BME280;60181;53.258;6.932;2023-04-07T18:25:53;102225.67;;;13.82;55.07
65659;BME280;60181;53.258;6.932;2023-04-07T18:29:57;102232.05;;;13.81;54.99
65659;BME280;60181;53.258;6.932;2023-04-07T18:34:01;102238.92;;;13.80;55.23
65659;BME280;60181;53.258;6.932;2023-04-07T18:38:05;102244.73;;;13.79;55.18
65659;BME280;60181;53.258;6.932;2023-04-07T18:42:09;102250.87;;;13.78;55.25
65659;BME280;60181;53.258;6.932;2023-04-07T18:46:13;102256.63;;;13.78;55.37
65659;BME280;60181;53.258;6.932;2023-04-07T18:50:17;102262.90;;;13.78;55.49
65659;BME280;60181;53.258;6.932;2023-04-07T18:54:21;102269.85;;;13.79;55.45
65659;BME280;60181;53.258;6.932;2023-04-07T18:58:25;102277.76;;;13.79;55.39
65659;BME280;60181;53.258;6.932;2023-04-07T19:02:29;102285.58;;;13.79;55.31
65659;BME280;60181;53.258;6.932;2023-04-07T19:06:33;102294.64;;;13.79;55.35
65659;BME280;60181;53.258;6.932;2023-04-07T19:10:37;102302.26;;;13.78;55.31
65659;BME280;60181;53.258;6.932;2023-04-07T19:14:41;102309.67;;;13.78;55.30
65659;BME280;60181;53.258;6.932;2023-04-07T19:18:45;102316.88;;;13.77;55.32
65659;BME280;60181;53.258;6.932;2023-04-07T19:22:49;102323.71;;;13.77;55.31
65659;BME280;60181;53.258;6.932;2023-04-07T19:26:53;102328.81;;;13.77;55.29
65659;BME280;60181;53.258;6.932;2023-04-07T19:30:57;102333.67;;;13.76;55.20
65659;BME280;60181;53.258;6.932;2023-04-07T19:35:01;102338.61;;;13.76;55.22
65659;BME280;60181;53.258;6.932;2023-04-07T19:39:05;102342.61;;;13.76;55.20
65659;BME280;60181;53.258;6.932;2023-04-07T19:43:09;102345.33;;;13.76;55.25
65659;BME280;60181;53.258;6.932;2023-04-07T19:47:13;102348.79;;;13.76;55.19
65659;BME280;60181;53.258;6.932;2023-04-07T19:51:17;102352.08;;;13.76;55.15
65659;BME280;60181;53.258;6.932;2023-04-07T19:55:21;102354.80;;;13.75;55.17
65659;BME280;60181;53.258;6.932;2023-04-07T19:59:25;102359.16;;;13.76;55.08
65659;BME280;60181;53.258;6.932;2023-04-07T20:03:29;102362.87;;;13.75;55.02
65659;BME280;60181;53.258;6.932;2023-04-07T20:07:33;102367.46;;;13.81;56.42
65659;BME280;60181;53.258;6.932;2023-04-07T20:11:37;102371.04;;;13.85;56.43
65659;BME280;60181;53.258;6.932;2023-04-07T20:15:41;102374.34;;;13.86;55.96
65659;BME280;60181;53.258;6.932;2023-04-07T20:19:45;102377.76;;;13.86;56.06
65659;BME280;60181;53.258;6.932;2023-04-07T20:23:49;102380.88;;;13.85;56.02
65659;BME280;60181;53.258;6.932;2023-04-07T20:27:53;102384.06;;;13.85;56.07
65659;BME280;60181;53.258;6.932;2023-04-07T20:31:57;102386.24;;;13.84;55.96
65659;BME280;60181;53.258;6.932;2023-04-07T20:36:01;102390.10;;;13.83;55.93
65659;BME280;60181;53.258;6.932;2023-04-07T20:40:05;102394.72;;;13.83;56.16
65659;BME280;60181;53.258;6.932;2023-04-07T20:44:09;102399.08;;;13.83;51.41
65659;BME280;60181;53.258;6.932;2023-04-07T20:48:13;102403.15;;;13.78;49.89
65659;BME280;60181;53.258;6.932;2023-04-07T20:52:17;102407.69;;;13.72;49.72
65659;BME280;60181;53.258;6.932;2023-04-07T20:56:21;102412.49;;;13.66;49.23
65659;BME280;60181;53.258;6.932;2023-04-07T21:00:25;102416.17;;;13.60;48.50
65659;BME280;60181;53.258;6.932;2023-04-07T21:04:29;102418.51;;;13.55;48.52
65659;BME280;60181;53.258;6.932;2023-04-07T21:08:33;102421.53;;;13.50;48.14
65659;BME280;60181;53.258;6.932;2023-04-07T21:12:37;102424.51;;;13.46;47.90
65659;BME280;60181;53.258;6.932;2023-04-07T21:16:41;102427.08;;;13.42;47.67
65659;BME280;60181;53.258;6.932;2023-04-07T21:20:45;102428.52;;;13.37;47.75
65659;BME280;60181;53.258;6.932;2023-04-07T21:24:51;102429.68;;;13.33;47.78
65659;BME280;60181;53.258;6.932;2023-04-07T21:28:53;102431.48;;;13.31;47.94
65659;BME280;60181;53.258;6.932;2023-04-07T21:32:57;102433.23;;;13.28;47.96
65659;BME280;60181;53.258;6.932;2023-04-07T21:37:01;102435.11;;;13.25;48.21
65659;BME280;60181;53.258;6.932;2023-04-07T21:41:05;102437.65;;;13.23;48.36
65659;BME280;60181;53.258;6.932;2023-04-07T21:45:09;102440.84;;;13.21;48.32
65659;BME280;60181;53.258;6.932;2023-04-07T21:49:13;102443.68;;;13.20;48.76
65659;BME280;60181;53.258;6.932;2023-04-07T21:53:17;102446.20;;;13.18;49.01